Time;durP1;ratioP1;P1;durP2;ratioP2;P2;SDS_P1;SDS_P2;PMS_P1;PMS_P2;Temp;Humidity;BMP_temperature;BMP_pressure;BME280_temperature;BME280_humidity;BME280_pressure;Samples;Min_cycle;Max_cycle;Signal;HPM_P1;HPM_P2
2021/06/22 00:02:13;;;;;;;1.60;1.40;;;27.20;42.80;;;;;;8236578;28;20282;-48
2021/06/22 00:06:13;;;;;;;;;;;27.10;42.80;;;;;;8262233;28;20022;-48
2021/06/22 00:10:16;;;;;;;4.23;1.80;;;27.10;42.90;;;;;;8266223;28;19917;-47
2021/06/22 00:14:17;;;;;;;2.53;1.73;;;27.10;42.90;;;;;;8260548;28;20035;-48
2021/06/22 00:18:17;;;;;;;;;;;27.10;42.90;;;;;;8261882;28;20080;-47
2021/06/22 00:22:18;;;;;;;2.90;1.93;;;27.10;42.90;;;;;;8260083;28;20351;-47
2021/06/22 00:26:18;;;;;;;;;;;27.10;42.90;;;;;;8266017;28;20027;-49
2021/06/22 00:30:20;;;;;;;1.77;1.50;;;27.10;42.90;;;;;;8232583;28;20360;-48
2021/06/22 00:34:20;;;;;;;2.35;1.60;;;27.10;42.90;;;;;;8227676;28;20485;-51
2021/06/22 00:38:21;;;;;;;;;;;27.10;42.90;;;;;;8261151;28;20042;-48
2021/06/22 00:42:21;;;;;;;2.07;1.60;;;27.10;42.90;;;;;;8265382;28;19937;-48
2021/06/22 00:46:22;;;;;;;;;;;27.10;43.00;;;;;;8259795;28;20042;-48
2021/06/22 00:50:22;;;;;;;2.57;1.53;;;27.10;43.00;;;;;;8260903;28;19913;-48
2021/06/22 00:54:23;;;;;;;;;;;27.00;42.90;;;;;;8261243;28;20031;-47
2021/06/22 00:58:24;;;;;;;2.20;1.90;;;27.00;42.90;;;;;;8258777;28;19921;-47
2021/06/22 01:02:24;;;;;;;;;;;27.00;42.90;;;;;;8256394;28;20043;-47
2021/06/22 01:06:25;;;;;;;2.60;1.73;;;27.00;42.90;;;;;;8245755;28;19914;-47
2021/06/22 01:10:26;;;;;;;;;;;27.00;42.90;;;;;;8257734;28;20116;-47
2021/06/22 01:14:27;;;;;;;4.32;1.70;;;27.00;42.90;;;;;;8227925;28;19918;-47
2021/06/22 01:18:27;;;;;;;1.83;1.48;;;27.00;42.90;;;;;;8249220;28;20069;-47
2021/06/22 01:22:28;;;;;;;;;;;27.00;43.00;;;;;;8230479;28;20043;-47
2021/06/22 01:26:28;;;;;;;4.27;1.60;;;27.00;42.90;;;;;;8250399;28;19961;-47
2021/06/22 01:30:30;;;;;;;;;;;26.90;42.90;;;;;;8245737;28;20038;-48
2021/06/22 01:34:31;;;;;;;2.13;1.60;;;26.90;42.90;;;;;;8258165;28;20750;-47
2021/06/22 01:38:31;;;;;;;;;;;26.90;42.90;;;;;;8264615;28;20041;-48
2021/06/22 01:42:32;;;;;;;2.17;1.50;;;26.90;42.90;;;;;;8259755;28;19913;-47
2021/06/22 01:46:33;;;;;;;;;;;26.90;42.90;;;;;;8256762;28;20130;-48
2021/06/22 01:50:33;;;;;;;3.10;1.87;;;26.90;42.90;;;;;;8244556;28;19924;-48
2021/06/22 01:54:34;;;;;;;;;;;26.90;42.90;;;;;;8252179;28;20514;-47
2021/06/22 01:58:34;;;;;;;1.97;1.70;;;26.90;42.90;;;;;;8258754;28;19913;-47
2021/06/22 02:02:35;;;;;;;;;;;26.90;43.00;;;;;;8266278;28;20034;-48
2021/06/22 02:06:35;;;;;;;2.43;1.50;;;26.80;42.90;;;;;;8265920;28;19921;-47
2021/06/22 02:10:36;;;;;;;;;;;26.80;42.90;;;;;;8268821;28;20049;-47
2021/06/22 02:14:37;;;;;;;1.85;1.50;;;26.80;42.90;;;;;;8265490;28;19971;-47
2021/06/22 02:18:37;;;;;;;;;;;26.80;43.00;;;;;;8265976;28;20380;-48
2021/06/22 02:22:38;;;;;;;2.10;1.57;;;26.80;43.00;;;;;;8263915;28;19917;-48
2021/06/22 02:26:38;;;;;;;;;;;26.80;43.00;;;;;;8266015;28;20027;-47
2021/06/22 02:30:40;;;;;;;3.27;1.70;;;26.80;43.00;;;;;;8250135;28;19922;-48
2021/06/22 02:34:40;;;;;;;1.45;1.30;;;26.80;43.00;;;;;;8231088;28;20081;-48
2021/06/22 02:38:41;;;;;;;;;;;26.80;43.00;;;;;;8233089;28;20039;-48
2021/06/22 02:42:41;;;;;;;1.57;1.37;;;26.70;43.00;;;;;;8251822;28;20318;-48
2021/06/22 02:46:42;;;;;;;;;;;26.70;43.00;;;;;;8264284;28;20030;-48
2021/06/22 02:50:42;;;;;;;3.23;1.50;;;26.70;43.00;;;;;;8243582;28;20390;-48
2021/06/22 02:54:43;;;;;;;;;;;26.70;43.00;;;;;;8264459;28;20035;-48
2021/06/22 02:58:43;;;;;;;2.87;1.50;;;26.70;43.00;;;;;;8258208;28;20256;-47
2021/06/22 03:02:44;;;;;;;;;;;26.70;43.00;;;;;;8268677;28;20042;-48
2021/06/22 03:06:45;;;;;;;2.27;1.37;;;26.70;43.00;;;;;;8263720;28;19914;-48
2021/06/22 03:10:45;;;;;;;;;;;26.70;43.10;;;;;;8238958;28;20410;-47
2021/06/22 03:14:46;;;;;;;3.37;1.77;;;26.70;43.10;;;;;;8263519;28;19920;-47
2021/06/22 03:18:46;;;;;;;;;;;26.70;43.10;;;;;;8263816;28;20116;-48
2021/06/22 03:22:47;;;;;;;1.20;1.10;;;26.70;43.10;;;;;;8242053;28;20359;-49
2021/06/22 03:26:47;;;;;;;;;;;26.70;43.10;;;;;;8263702;28;20114;-48
2021/06/22 03:30:48;;;;;;;2.60;1.20;;;26.60;43.00;;;;;;8263315;28;20294;-48
2021/06/22 03:34:48;;;;;;;;;;;26.70;43.10;;;;;;8237802;28;20124;-47
2021/06/22 03:38:49;;;;;;;2.60;1.60;;;26.70;43.10;;;;;;8255248;28;19911;-48
2021/06/22 03:42:50;;;;;;;;;;;26.70;43.10;;;;;;8230997;28;20116;-49
2021/06/22 03:46:50;;;;;;;1.57;1.47;;;26.60;43.60;;;;;;8233419;28;20417;-48
2021/06/22 03:50:51;;;;;;;;;;;26.60;43.10;;;;;;8263217;28;20100;-48
2021/06/22 03:54:51;;;;;;;2.10;1.40;;;26.60;43.10;;;;;;8242665;28;19917;-50
2021/06/22 03:58:52;;;;;;;;;;;26.60;43.10;;;;;;8261475;28;20027;-48
2021/06/22 04:02:56;;;;;;;1.80;1.43;;;26.60;43.10;;;;;;8239359;28;19941;-48
2021/06/22 04:06:57;;;;;;;2.05;1.42;;;26.60;43.10;;;;;;8251491;28;20035;-49
2021/06/22 04:10:57;;;;;;;;;;;26.60;43.10;;;;;;8230476;28;20546;-48
2021/06/22 04:14:58;;;;;;;1.50;1.40;;;26.60;43.10;;;;;;8234236;28;19911;-50
2021/06/22 04:18:58;;;;;;;;;;;26.60;43.10;;;;;;8229971;28;20031;-49
2021/06/22 04:22:59;;;;;;;2.27;1.33;;;26.50;43.00;;;;;;8257751;28;19914;-48
2021/06/22 04:26:59;;;;;;;;;;;26.50;43.10;;;;;;8262241;28;20042;-49
2021/06/22 04:31:00;;;;;;;1.87;1.57;;;26.60;43.10;;;;;;8265589;28;19928;-49
2021/06/22 04:35:00;;;;;;;;;;;26.50;43.10;;;;;;8259299;28;20037;-48
2021/06/22 04:39:01;;;;;;;2.30;1.10;;;26.60;43.10;;;;;;8260873;28;19936;-48
2021/06/22 04:43:01;;;;;;;;;;;26.50;43.10;;;;;;8239305;28;20505;-47
2021/06/22 04:47:02;;;;;;;2.67;1.60;;;26.50;43.60;;;;;;8257315;28;19910;-48
2021/06/22 04:51:03;;;;;;;;;;;26.50;43.10;;;;;;8265532;28;20404;-48
2021/06/22 04:55:14;;;;;;;1.57;1.40;;;26.50;43.10;;;;;;8260798;28;19913;-48
2021/06/22 04:59:14;;;;;;;;;;;26.50;43.10;;;;;;8259013;28;20100;-47
2021/06/22 05:03:15;;;;;;;2.67;2.23;;;26.50;43.10;;;;;;8253937;28;20343;-48
2021/06/22 05:07:16;;;;;;;;;;;26.40;43.00;;;;;;8256986;28;20041;-48
2021/06/22 05:11:17;;;;;;;2.10;1.50;;;26.50;43.10;;;;;;8258399;28;19929;-48
2021/06/22 05:15:18;;;;;;;;;;;26.40;43.10;;;;;;8260846;28;20038;-47
2021/06/22 05:19:18;;;;;;;;;;;26.40;43.10;;;;;;8234700;28;19914;-47
2021/06/22 05:23:19;;;;;;;1.67;1.37;;;26.40;43.10;;;;;;8236305;28;19917;-48
2021/06/22 05:27:20;;;;;;;;;;;26.40;43.10;;;;;;8247815;28;20031;-49
2021/06/22 05:31:20;;;;;;;2.00;1.40;;;26.40;43.20;;;;;;8235394;28;19936;-47
2021/06/22 05:35:21;;;;;;;1.92;1.50;;;26.40;43.20;;;;;;8250435;28;20367;-46
2021/06/22 05:39:21;;;;;;;;;;;26.40;43.20;;;;;;8248400;28;20031;-47
2021/06/22 05:43:22;;;;;;;2.50;1.50;;;26.40;43.20;;;;;;8228141;28;20457;-48
2021/06/22 05:47:22;;;;;;;;;;;26.40;43.20;;;;;;8228979;28;20493;-48
2021/06/22 05:51:23;;;;;;;1.60;1.50;;;26.40;43.20;;;;;;8228155;28;19922;-47
2021/06/22 05:55:24;;;;;;;1.55;1.40;;;26.40;43.70;;;;;;8227807;28;20043;-47
2021/06/22 05:59:24;;;;;;;1.85;1.30;;;26.40;43.20;;;;;;8233070;28;20043;-48
2021/06/22 06:03:25;;;;;;;;;;;26.40;43.20;;;;;;8228760;28;20070;-47
2021/06/22 06:07:25;;;;;;;2.60;1.73;;;26.40;43.20;;;;;;8233217;28;19932;-47
2021/06/22 06:11:26;;;;;;;;;;;26.30;43.20;;;;;;8228570;28;20109;-51
2021/06/22 06:15:26;;;;;;;2.20;1.40;;;26.40;43.20;;;;;;8227289;28;19914;-50
2021/06/22 06:19:27;;;;;;;;;;;26.40;43.20;;;;;;8233087;28;20034;-47
2021/06/22 06:23:32;;;;;;;2.17;1.60;;;26.40;43.20;;;;;;8227808;28;19914;-47
2021/06/22 06:31:45;;;;;;;1.75;1.55;;;26.30;43.20;;;;;;8228044;28;20047;-48
2021/06/22 06:35:46;;;;;;;1.80;1.48;;;26.30;43.20;;;;;;8232552;28;20038;-50
2021/06/22 06:39:46;;;;;;;;;;;26.30;43.20;;;;;;8237850;28;20026;-48
2021/06/22 06:43:47;;;;;;;1.93;1.10;;;26.40;43.20;;;;;;8233466;28;20001;-48
2021/06/22 06:47:47;;;;;;;;;;;26.30;43.20;;;;;;8233963;28;20031;-48
2021/06/22 06:51:48;;;;;;;1.50;1.25;;;26.30;43.20;;;;;;8232776;28;19929;-48
2021/06/22 06:55:49;;;;;;;;;;;26.40;43.30;;;;;;8238016;28;20031;-48
2021/06/22 06:59:50;;;;;;;2.70;1.37;;;26.40;43.20;;;;;;8233164;28;19945;-48
2021/06/22 07:03:52;;;;;;;1.48;1.35;;;26.40;43.30;;;;;;8232244;28;20042;-49
2021/06/22 07:07:53;;;;;;;2.35;1.30;;;26.40;43.30;;;;;;8233008;28;20070;-48
2021/06/22 07:11:56;;;;;;;1.33;1.05;;;26.40;43.30;;;;;;8231951;28;20050;-46
2021/06/22 07:15:56;;;;;;;2.47;1.15;;;26.40;43.30;;;;;;8236957;28;20113;-47
2021/06/22 07:19:57;;;;;;;1.23;1.13;;;26.40;43.80;;;;;;8232455;28;20066;-48
2021/06/22 07:23:58;;;;;;;1.73;1.40;;;26.40;43.30;;;;;;8232445;28;20042;-48
2021/06/22 07:27:58;;;;;;;;;;;26.40;43.30;;;;;;8257807;28;20515;-49
2021/06/22 07:31:59;;;;;;;3.93;1.20;;;26.40;43.30;;;;;;8253228;28;19929;-48
2021/06/22 07:35:59;;;;;;;;;;;26.30;43.30;;;;;;8239407;28;20035;-48
2021/06/22 07:40:00;;;;;;;2.60;1.57;;;26.30;43.30;;;;;;8231771;28;20328;-48
2021/06/22 07:44:00;;;;;;;;;;;26.30;43.30;;;;;;8232098;28;20069;-48
2021/06/22 07:48:01;;;;;;;3.67;1.07;;;26.40;43.30;;;;;;8230120;28;20284;-48
2021/06/22 07:52:01;;;;;;;;;;;26.40;43.40;;;;;;8245480;28;20053;-48
2021/06/22 07:56:03;;;;;;;2.53;1.30;;;26.30;43.30;;;;;;8246125;28;20367;-48
2021/06/22 08:00:06;;;;;;;2.15;1.30;;;26.30;43.30;;;;;;8230754;28;20089;-48
2021/06/22 08:04:07;;;;;;;0.98;0.90;;;26.30;43.90;;;;;;8230773;28;20484;-48
2021/06/22 08:08:09;;;;;;;2.28;1.10;;;26.30;43.30;;;;;;8235160;28;20027;-48
2021/06/22 08:12:10;;;;;;;1.40;1.27;;;26.30;43.30;;;;;;8230235;28;20404;-47
2021/06/22 08:16:10;;;;;;;;;;;26.30;43.40;;;;;;8241829;28;20496;-49
2021/06/22 08:20:12;;;;;;;1.63;0.90;;;26.30;43.40;;;;;;8262760;28;20040;-47
2021/06/22 08:24:12;;;;;;;1.13;1.00;;;26.30;43.40;;;;;;8240066;28;20043;-49
2021/06/22 08:28:13;;;;;;;1.58;1.30;;;26.30;43.40;;;;;;8230606;28;20511;-48
2021/06/22 08:32:14;;;;;;;;;;;26.20;43.40;;;;;;8230624;28;20047;-47
2021/06/22 08:36:14;;;;;;;1.30;1.20;;;26.20;43.40;;;;;;8229822;28;20279;-49
2021/06/22 08:40:15;;;;;;;;;;;26.20;43.40;;;;;;8230262;28;20443;-48
2021/06/22 08:44:19;;;;;;;2.53;1.37;;;26.20;43.40;;;;;;8232983;28;19918;-49
2021/06/22 08:48:19;;;;;;;1.13;1.00;;;26.20;43.40;;;;;;8228006;28;20041;-48
2021/06/22 08:52:24;;;;;;;1.90;1.17;;;26.20;43.40;;;;;;8239679;28;20575;-48
2021/06/22 08:56:25;;;;;;;1.30;1.15;;;26.20;43.40;;;;;;8260526;28;20391;-49
2021/06/22 09:00:27;;;;;;;2.20;1.20;;;26.20;43.40;;;;;;8265520;28;20035;-48
2021/06/22 09:04:28;;;;;;;3.22;1.25;;;26.20;43.40;;;;;;8261555;28;20050;-49
2021/06/22 09:08:35;;;;;;;1.50;1.17;;;26.30;43.40;;;;;;8261293;28;20054;-49
2021/06/22 09:12:35;;;;;;;2.08;1.35;;;26.30;43.40;;;;;;8260855;28;20038;-49
2021/06/22 09:16:38;;;;;;;1.77;1.10;;;26.30;43.40;;;;;;8261521;28;20034;-49
2021/06/22 09:20:42;;;;;;;1.20;1.10;;;26.30;43.30;;;;;;8243401;28;20085;-48
2021/06/22 09:25:03;;;;;;;1.92;1.20;;;26.20;43.30;;;;;;8234675;28;20084;-48
2021/06/22 09:29:10;;;;;;;1.60;1.25;;;26.30;43.30;;;;;;8260963;28;20491;-50
2021/06/22 09:33:34;;;;;;;1.20;1.10;;;26.30;43.30;;;;;;8259957;28;20381;-48
2021/06/22 09:37:51;;;;;;;1.25;1.10;;;26.30;43.30;;;;;;8263063;28;20035;-48
2021/06/22 09:41:52;;;;;;;1.35;1.10;;;26.30;43.30;;;;;;8241570;28;20122;-50
2021/06/22 09:45:53;;;;;;;1.05;1.05;;;26.30;43.30;;;;;;8236022;28;20038;-49
2021/06/22 09:49:53;;;;;;;1.45;0.93;;;26.30;43.30;;;;;;8259384;28;20432;-48
2021/06/22 09:53:54;;;;;;;;;;;26.30;43.30;;;;;;8250763;28;20096;-50
2021/06/22 09:57:55;;;;;;;0.80;0.80;;;26.30;43.30;;;;;;8231838;28;19914;-49
2021/06/22 10:02:03;;;;;;;2.10;1.23;;;26.30;43.30;;;;;;8230858;28;20042;-48
2021/06/22 10:06:06;;;;;;;1.02;1.00;;;26.30;43.30;;;;;;8227704;28;20512;-50
2021/06/22 10:10:07;;;;;;;1.08;0.98;;;26.30;43.30;;;;;;8232186;28;20377;-48
2021/06/22 10:14:10;;;;;;;2.58;1.17;;;26.30;43.30;;;;;;8234290;28;20082;-48
2021/06/22 10:18:11;;;;;;;1.27;0.95;;;26.30;43.30;;;;;;8238179;28;20058;-47
2021/06/22 10:22:14;;;;;;;2.42;1.13;;;26.30;43.30;;;;;;8244507;28;20107;-49
2021/06/22 10:26:14;;;;;;;1.00;0.90;;;26.30;43.30;;;;;;8266170;28;20423;-50
2021/06/22 10:30:19;;;;;;;1.10;1.00;;;26.40;43.30;;;;;;8262591;28;20043;-49
2021/06/22 10:34:20;;;;;;;1.15;1.00;;;26.40;43.30;;;;;;8235890;28;20050;-48
2021/06/22 10:38:22;;;;;;;1.35;1.10;;;26.40;43.30;;;;;;8235880;28;20046;-47
2021/06/22 10:42:23;;;;;;;1.77;0.90;;;26.40;43.20;;;;;;8232916;28;20043;-49
2021/06/22 10:46:24;;;;;;;1.42;1.02;;;26.40;43.20;;;;;;8233429;28;20125;-48
2021/06/22 10:50:28;;;;;;;;;;;26.50;43.20;;;;;;8233969;28;20043;-48
2021/06/22 10:54:54;;;;;;;1.30;1.08;;;26.50;43.20;;;;;;8237065;28;19918;-48
2021/06/22 10:59:18;;;;;;;0.90;0.90;;;26.50;43.20;;;;;;8232994;28;20043;-49
2021/06/22 11:03:22;;;;;;;1.25;0.88;;;26.50;43.20;;;;;;8233133;28;20051;-48
2021/06/22 11:07:22;;;;;;;1.00;0.93;;;26.50;43.10;;;;;;8232915;28;20034;-48
2021/06/22 11:11:24;;;;;;;;;;;26.50;43.10;;;;;;8233112;28;20051;-48
2021/06/22 11:15:53;;;;;;;1.00;0.90;;;26.50;43.10;;;;;;8236401;28;20334;-49
2021/06/22 11:20:05;;;;;;;1.85;1.15;;;26.60;43.10;;;;;;8230125;28;20137;-49
2021/06/22 11:24:11;;;;;;;1.83;1.27;;;26.60;43.10;;;;;;8233015;28;20129;-48
2021/06/22 11:28:11;;;;;;;1.50;1.20;;;26.70;43.10;;;;;;8253891;28;20042;-49
2021/06/22 11:32:28;;;;;;;;;;;26.70;43.10;;;;;;8232633;28;20077;-48
2021/06/22 11:36:29;;;;;;;0.93;0.93;;;26.70;43.10;;;;;;8235894;28;20272;-49
2021/06/22 11:40:30;;;;;;;1.08;0.98;;;26.70;43.00;;;;;;8231783;28;20041;-48
2021/06/22 11:44:31;;;;;;;;;;;26.70;43.00;;;;;;8232327;28;20492;-48
2021/06/22 11:48:57;;;;;;;1.10;1.00;;;26.70;42.90;;;;;;8255376;28;19946;-49
2021/06/22 11:53:06;;;;;;;1.58;0.95;;;26.70;42.90;;;;;;8231680;28;20051;-51
2021/06/22 11:57:29;;;;;;;1.30;1.20;;;26.80;43.00;;;;;;8235577;28;20101;-51
2021/06/22 12:01:30;;;;;;;1.63;1.00;;;26.80;42.90;;;;;;8231079;28;20440;-48
2021/06/22 12:05:32;;;;;;;;;;;26.80;42.90;;;;;;8231359;28;20043;-49
2021/06/22 12:09:35;;;;;;;0.85;0.85;;;26.80;42.90;;;;;;8235569;28;19997;-49
2021/06/22 12:13:39;;;;;;;1.25;0.82;;;26.90;42.90;;;;;;8262772;28;20455;-48
2021/06/22 12:17:48;;;;;;;1.30;1.00;;;26.90;43.10;;;;;;8267154;28;20035;-52
2021/06/22 12:21:50;;;;;;;1.40;1.08;;;26.90;42.80;;;;;;8262232;28;20448;-51
2021/06/22 12:25:54;;;;;;;1.30;1.10;;;26.90;42.80;;;;;;8262633;28;20035;-51
2021/06/22 12:29:59;;;;;;;2.00;1.00;;;27.00;42.80;;;;;;8261881;28;20031;-48
2021/06/22 12:34:02;;;;;;;1.13;1.02;;;27.00;42.80;;;;;;8262875;28;20053;-50
2021/06/22 12:38:05;;;;;;;1.70;1.30;;;27.00;42.70;;;;;;8266430;28;20039;-49
2021/06/22 12:42:10;;;;;;;1.38;1.27;;;27.00;42.70;;;;;;8260072;28;20034;-49
2021/06/22 12:46:13;;;;;;;1.30;1.20;;;27.10;42.80;;;;;;8229963;28;20397;-49
2021/06/22 12:50:14;;;;;;;1.20;1.10;;;27.10;42.70;;;;;;8229733;28;20425;-49
2021/06/22 12:54:16;;;;;;;1.73;1.35;;;27.10;42.70;;;;;;8233590;28;20038;-49
2021/06/22 12:58:16;;;;;;;1.05;0.95;;;27.10;42.70;;;;;;8229342;28;20097;-50
2021/06/22 13:02:20;;;;;;;;;;;27.10;42.70;;;;;;8229643;28;20605;-53
2021/06/22 13:06:29;;;;;;;0.90;0.90;;;27.10;42.70;;;;;;8228914;28;19922;-49
2021/06/22 13:10:29;;;;;;;1.30;1.05;;;27.10;42.60;;;;;;8229148;28;20039;-52
2021/06/22 13:14:31;;;;;;;;;;;27.10;42.60;;;;;;8233741;28;20079;-53
2021/06/22 13:18:31;;;;;;;1.50;1.20;;;27.20;42.70;;;;;;8228403;28;19996;-50
2021/06/22 13:22:33;;;;;;;;;;;27.10;42.60;;;;;;8229579;28;20039;-49
2021/06/22 13:26:36;;;;;;;;;;;27.20;42.70;;;;;;8229274;28;20356;-48
2021/06/22 13:30:39;;;;;;;1.65;1.25;;;27.20;42.60;;;;;;8232647;28;19910;-49
2021/06/22 13:34:40;;;;;;;1.45;1.10;;;27.20;42.60;;;;;;8228549;28;20153;-48
2021/06/22 13:38:40;;;;;;;;;;;27.20;42.60;;;;;;8228791;28;20436;-50
2021/06/22 13:42:41;;;;;;;1.00;0.90;;;27.20;43.20;;;;;;8228110;28;19945;-50
2021/06/22 13:46:41;;;;;;;;;;;27.20;42.60;;;;;;8239998;28;20030;-52
2021/06/22 13:50:42;;;;;;;1.37;1.20;;;27.20;42.60;;;;;;8257112;28;19964;-50
2021/06/22 13:54:55;;;;;;;;;;;27.20;42.60;;;;;;8260358;28;20400;-48
2021/06/22 13:58:56;;;;;;;1.40;1.30;;;27.20;42.60;;;;;;8235010;28;19957;-51
2021/06/22 14:02:56;;;;;;;;;;;27.20;42.60;;;;;;8234660;28;20046;-51
2021/06/22 14:06:59;;;;;;;1.80;1.40;;;27.20;42.60;;;;;;8239506;28;20368;-52
2021/06/22 14:11:00;;;;;;;2.17;1.30;;;27.20;42.50;;;;;;8234515;28;20123;-52
2021/06/22 14:15:00;;;;;;;;;;;27.20;42.50;;;;;;8234721;28;20039;-50
2021/06/22 14:19:04;;;;;;;1.23;1.13;;;27.20;42.50;;;;;;8234517;28;19969;-52
2021/06/22 14:23:07;;;;;;;1.85;1.40;;;27.20;42.50;;;;;;8238730;28;20034;-51
2021/06/22 14:27:09;;;;;;;3.47;1.52;;;27.30;42.50;;;;;;8233578;28;20484;-52
2021/06/22 14:31:10;;;;;;;10.85;1.67;;;27.20;42.90;;;;;;8234460;28;20513;-51
2021/06/22 14:35:13;;;;;;;;;;;27.20;43.40;;;;;;8234287;28;20027;-51
2021/06/22 14:39:14;;;;;;;4.25;1.70;;;27.30;42.80;;;;;;8233174;28;20295;-51
2021/06/22 14:43:14;;;;;;;;;;;27.30;42.70;;;;;;8238075;28;20042;-52
2021/06/22 14:47:15;;;;;;;5.87;1.27;;;27.30;42.60;;;;;;8236669;28;19914;-52
2021/06/22 14:51:15;;;;;;;;;;;27.30;42.60;;;;;;8234929;28;20125;-48
2021/06/22 14:59:47;;;;;;;5.05;1.88;;;27.30;42.50;;;;;;8240784;28;20150;-52
2021/06/22 15:03:48;;;;;;;;;;;27.30;42.40;;;;;;8233111;28;20043;-50
2021/06/22 15:07:49;;;;;;;1.67;1.30;;;27.40;42.50;;;;;;8233328;28;20403;-52
2021/06/22 15:11:50;;;;;;;2.63;1.27;;;27.40;42.50;;;;;;8237368;28;20043;-53
2021/06/22 15:15:51;;;;;;;2.33;1.42;;;27.40;42.40;;;;;;8232670;28;20094;-51
2021/06/22 15:19:51;;;;;;;;;;;27.40;42.40;;;;;;8233164;28;20118;-50
2021/06/22 15:23:52;;;;;;;6.40;1.57;;;27.40;42.30;;;;;;8232610;28;19918;-51
2021/06/22 15:27:52;;;;;;;;;;;27.40;42.30;;;;;;8232483;28;20050;-48
2021/06/22 15:31:55;;;;;;;3.60;1.63;;;27.40;42.30;;;;;;8236617;28;19925;-49
2021/06/22 15:35:57;;;;;;;2.55;1.40;;;27.40;42.30;;;;;;8232117;28;20039;-51
2021/06/22 15:39:58;;;;;;;4.80;2.20;;;27.40;42.30;;;;;;8231445;28;20073;-52
2021/06/22 15:43:58;;;;;;;;;;;27.40;42.40;;;;;;8232487;28;20448;-51
2021/06/22 15:47:59;;;;;;;4.47;1.70;;;27.40;42.30;;;;;;8235905;28;19910;-53
2021/06/22 15:52:00;;;;;;;3.70;1.70;;;27.30;42.30;;;;;;8230907;28;20049;-52
2021/06/22 15:56:00;;;;;;;;;;;27.40;42.30;;;;;;8231667;28;20123;-48
2021/06/22 16:00:01;;;;;;;2.63;1.63;;;27.30;42.80;;;;;;8240030;28;19979;-50
2021/06/22 16:04:03;;;;;;;;;;;27.30;42.30;;;;;;8265282;28;20396;-48
2021/06/22 16:08:04;;;;;;;2.47;1.73;;;27.30;42.30;;;;;;8233713;28;19910;-50
2021/06/22 16:12:05;;;;;;;2.95;2.25;;;27.30;42.30;;;;;;8231051;28;20105;-49
2021/06/22 16:16:06;;;;;;;;;;;27.30;42.30;;;;;;8230652;28;20042;-50
2021/06/22 16:20:09;;;;;;;2.50;1.50;;;27.30;42.30;;;;;;8230533;28;19914;-51
2021/06/22 16:24:09;;;;;;;2.72;1.60;;;27.30;42.30;;;;;;8234873;28;20115;-51
2021/06/22 16:28:10;;;;;;;;;;;27.20;42.20;;;;;;8233588;28;20046;-51
2021/06/22 16:32:10;;;;;;;2.43;1.77;;;27.30;42.30;;;;;;8251784;28;19922;-51
2021/06/22 16:36:11;;;;;;;3.47;1.77;;;27.20;42.30;;;;;;8230356;28;20041;-52
2021/06/22 16:40:13;;;;;;;;;;;27.30;42.30;;;;;;8234470;28;20035;-50
2021/06/22 16:44:13;;;;;;;2.40;1.77;;;27.30;42.30;;;;;;8230377;28;19941;-49
2021/06/22 16:48:14;;;;;;;;;;;27.20;42.20;;;;;;8230508;28;20062;-49
2021/06/22 16:52:15;;;;;;;1.97;1.50;;;27.20;42.30;;;;;;8233184;28;19922;-49
2021/06/22 16:56:15;;;;;;;;;;;27.20;42.30;;;;;;8260978;28;20034;-48
2021/06/22 17:00:16;;;;;;;3.53;1.80;;;27.20;42.20;;;;;;8233978;28;19918;-48
2021/06/22 17:04:18;;;;;;;3.72;1.65;;;27.20;42.30;;;;;;8229186;28;20039;-51
2021/06/22 17:08:19;;;;;;;3.30;1.80;;;27.20;42.20;;;;;;8229629;28;20110;-50
2021/06/22 17:12:19;;;;;;;;;;;27.20;42.30;;;;;;8229612;28;20443;-50
2021/06/22 17:16:20;;;;;;;3.57;1.90;;;27.20;42.30;;;;;;8233058;28;19914;-51
2021/06/22 17:20:21;;;;;;;;;;;27.20;42.20;;;;;;8256806;28;20093;-52
2021/06/22 17:24:23;;;;;;;4.18;1.45;;;27.20;42.30;;;;;;8241843;28;19921;-52
2021/06/22 17:28:27;;;;;;;1.95;1.70;;;27.20;42.30;;;;;;8252399;28;20395;-48
2021/06/22 17:32:28;;;;;;;1.50;1.33;;;27.20;42.30;;;;;;8230982;28;20043;-49
2021/06/22 17:36:28;;;;;;;;;;;27.20;42.30;;;;;;8232374;28;20118;-50
2021/06/22 17:40:29;;;;;;;2.73;1.70;;;27.20;42.30;;;;;;8228276;28;19985;-50
2021/06/22 17:44:29;;;;;;;;;;;27.20;42.30;;;;;;8229236;28;20436;-49
2021/06/22 17:48:30;;;;;;;2.03;1.40;;;27.20;42.30;;;;;;8228729;28;19918;-48
2021/06/22 17:52:31;;;;;;;;;;;27.20;42.40;;;;;;8232922;28;20047;-53
2021/06/22 18:01:31;;;;;;;1.52;1.30;;;27.10;42.30;;;;;;8225811;28;20041;-52
2021/06/22 18:05:32;;;;;;;2.03;1.38;;;27.20;42.40;;;;;;8229075;28;20043;-52
2021/06/22 18:09:32;;;;;;;;;;;27.20;42.40;;;;;;8242798;28;20031;-49
2021/06/22 18:13:33;;;;;;;1.67;1.40;;;27.20;42.40;;;;;;8232230;28;20303;-48
2021/06/22 18:17:33;;;;;;;;;;;27.10;42.40;;;;;;8228980;28;20385;-48
2021/06/22 18:21:35;;;;;;;1.63;1.53;;;27.10;42.30;;;;;;8228223;28;19914;-51
2021/06/22 18:25:35;;;;;;;1.52;1.17;;;27.10;42.30;;;;;;8227606;28;20026;-49
2021/06/22 18:29:36;;;;;;;;;;;27.10;42.40;;;;;;8234597;28;20058;-51
2021/06/22 18:33:38;;;;;;;2.60;1.60;;;27.10;42.30;;;;;;8248934;28;20358;-52
2021/06/22 18:37:39;;;;;;;2.28;1.70;;;27.10;42.30;;;;;;8240008;28;20034;-51
2021/06/22 18:41:39;;;;;;;;;;;27.10;42.40;;;;;;8253449;28;20105;-52
2021/06/22 18:45:40;;;;;;;1.70;1.50;;;27.10;42.40;;;;;;8233583;28;19960;-51
2021/06/22 18:49:40;;;;;;;2.17;1.60;;;27.10;42.90;;;;;;8237390;28;20392;-52
2021/06/22 18:53:41;;;;;;;;;;;27.10;42.40;;;;;;8233902;28;20074;-52
2021/06/22 18:57:42;;;;;;;2.40;1.60;;;27.00;42.40;;;;;;8233832;28;19911;-50
2021/06/22 19:01:42;;;;;;;1.67;1.45;;;27.10;42.50;;;;;;8232885;28;20043;-49
2021/06/22 19:05:43;;;;;;;;;;;27.10;42.50;;;;;;8238210;28;20039;-49
2021/06/22 19:09:43;;;;;;;2.07;1.70;;;27.10;42.50;;;;;;8232973;28;19914;-49
2021/06/22 19:13:44;;;;;;;;;;;27.00;42.40;;;;;;8232715;28;20061;-48
2021/06/22 19:17:45;;;;;;;2.50;1.90;;;27.00;42.50;;;;;;8232636;28;19917;-50
2021/06/22 19:21:45;;;;;;;1.48;1.25;;;27.00;42.50;;;;;;8232864;28;20139;-50
2021/06/22 19:25:46;;;;;;;;;;;27.00;42.50;;;;;;8236763;28;20591;-50
2021/06/22 19:29:46;;;;;;;2.27;1.60;;;27.00;42.60;;;;;;8232198;28;19921;-50
2021/06/22 19:33:47;;;;;;;;;;;27.00;42.60;;;;;;8232501;28;20046;-49
2021/06/22 19:37:49;;;;;;;1.60;1.13;;;27.00;42.60;;;;;;8231880;28;19977;-48
2021/06/22 19:41:50;;;;;;;1.58;1.38;;;27.00;42.60;;;;;;8235370;28;20046;-49
2021/06/22 19:45:50;;;;;;;;;;;27.00;42.70;;;;;;8231915;28;20056;-49
2021/06/22 19:49:51;;;;;;;1.83;1.20;;;26.90;42.60;;;;;;8231509;28;19914;-51
2021/06/22 19:53:51;;;;;;;;;;;27.00;42.70;;;;;;8239664;28;20506;-49
2021/06/22 19:57:53;;;;;;;1.77;1.40;;;27.00;42.70;;;;;;8267468;28;19964;-48
2021/06/22 20:01:54;;;;;;;1.30;1.20;;;26.90;42.70;;;;;;8232528;28;20062;-47
2021/06/22 20:05:54;;;;;;;;;;;26.90;42.80;;;;;;8231741;28;20043;-48
2021/06/22 20:09:55;;;;;;;3.00;1.53;;;26.90;42.80;;;;;;8230598;28;19918;-48
2021/06/22 20:13:55;;;;;;;;;;;26.90;42.80;;;;;;8231386;28;20082;-48
2021/06/22 20:17:56;;;;;;;1.83;1.20;;;26.90;42.80;;;;;;8235363;28;20435;-48
2021/06/22 20:21:59;;;;;;;1.25;1.15;;;26.90;42.80;;;;;;8255177;28;20141;-50
2021/06/22 20:26:00;;;;;;;1.90;1.40;;;26.90;42.90;;;;;;8262878;28;20042;-48
2021/06/22 20:30:00;;;;;;;;;;;26.90;42.90;;;;;;8263167;28;20081;-49
2021/06/22 20:34:04;;;;;;;3.27;1.43;;;26.90;42.90;;;;;;8266632;28;20375;-48
2021/06/22 20:38:04;;;;;;;1.50;1.40;;;26.90;42.90;;;;;;8262450;28;20030;-48
2021/06/22 20:42:05;;;;;;;;;;;26.90;42.90;;;;;;8262897;28;20043;-48
2021/06/22 20:46:06;;;;;;;1.97;1.43;;;26.90;42.90;;;;;;8259132;28;19984;-47
2021/06/22 20:50:07;;;;;;;;;;;26.80;42.90;;;;;;8231173;28;20372;-47
2021/06/22 20:54:07;;;;;;;1.63;1.43;;;26.80;42.90;;;;;;8251598;28;20366;-48
2021/06/22 20:58:08;;;;;;;;;;;26.80;42.90;;;;;;8261834;28;20526;-49
2021/06/22 21:02:09;;;;;;;2.20;1.80;;;26.80;42.90;;;;;;8261815;28;20367;-48
2021/06/22 21:06:10;;;;;;;2.00;1.58;;;26.80;42.90;;;;;;8261496;28;20057;-47
2021/06/22 21:10:10;;;;;;;;;;;26.80;43.00;;;;;;8266149;28;20369;-51
2021/06/22 21:14:12;;;;;;;2.63;1.63;;;26.80;43.00;;;;;;8261080;28;19921;-49
2021/06/22 21:18:12;;;;;;;1.40;1.30;;;26.80;43.00;;;;;;8261501;28;20041;-49
2021/06/22 21:22:13;;;;;;;;;;;26.80;43.00;;;;;;8261085;28;20121;-51
2021/06/22 21:26:13;;;;;;;2.17;1.57;;;26.80;43.00;;;;;;8265543;28;19910;-51
2021/06/22 21:30:15;;;;;;;;;;;26.80;43.00;;;;;;8261493;28;20121;-49
2021/06/22 21:34:16;;;;;;;1.30;1.20;;;26.80;43.10;;;;;;8260567;28;20405;-51
2021/06/22 21:38:16;;;;;;;;;;;26.70;43.00;;;;;;8261305;28;20062;-52
2021/06/22 21:42:17;;;;;;;1.47;1.37;;;26.70;43.10;;;;;;8261096;28;20360;-49
2021/06/22 21:46:17;;;;;;;;;;;26.70;43.10;;;;;;8265234;28;20089;-48
2021/06/22 21:50:18;;;;;;;2.50;1.60;;;26.70;43.10;;;;;;8260630;28;20356;-48
2021/06/22 21:54:18;;;;;;;;;;;26.70;43.20;;;;;;8261159;28;20520;-49
2021/06/22 21:58:19;;;;;;;1.37;1.23;;;26.70;43.20;;;;;;8260202;28;19929;-51